Time;durP1;ratioP1;P1;durP2;ratioP2;P2;SDS_P1;SDS_P2;PMS_P1;PMS_P2;Temp;Humidity;BMP_temperature;BMP_pressure;BME280_temperature;BME280_humidity;BME280_pressure;Samples;Min_cycle;Max_cycle;Signal;HPM_P1;HPM_P2
2024/02/19 06:00:22;;;;;;;3.35;1.10;;;8.90;97.40;;;;;;4903750;23;20070;-75
2024/02/19 06:02:24;;;;;;;4.65;1.30;;;8.90;97.40;;;;;;4086092;29;20107;-76
2024/02/19 06:04:26;;;;;;;3.40;1.42;;;8.90;97.40;;;;;;4086153;29;20051;-74
2024/02/19 06:06:28;;;;;;;2.97;1.35;;;8.90;97.40;;;;;;4085989;29;20057;-75
2024/02/19 06:08:31;;;;;;;3.55;1.10;;;8.90;97.30;;;;;;4086305;29;20488;-75
2024/02/19 06:10:33;;;;;;;3.17;1.40;;;8.90;97.30;;;;;;4086174;29;20469;-75
2024/02/19 06:12:35;;;;;;;4.35;1.80;;;8.90;97.30;;;;;;4086011;29;20052;-75
2024/02/19 06:14:37;;;;;;;3.53;1.50;;;9.00;97.20;;;;;;4085884;29;20048;-75
2024/02/19 06:16:40;;;;;;;4.95;1.45;;;9.00;97.20;;;;;;4085878;29;20044;-76
2024/02/19 06:18:41;;;;;;;2.70;1.40;;;9.00;97.20;;;;;;4085915;29;20134;-76
2024/02/19 06:20:43;;;;;;;4.22;1.50;;;9.00;97.30;;;;;;4085754;29;20047;-75
2024/02/19 06:22:44;;;;;;;4.65;1.38;;;9.00;97.20;;;;;;4085947;29;20461;-76
2024/02/19 06:24:46;;;;;;;3.63;1.60;;;9.00;97.20;;;;;;4085860;29;20048;-76
2024/02/19 06:26:48;;;;;;;3.25;1.58;;;9.00;97.10;;;;;;4085205;29;20044;-76
2024/02/19 06:28:49;;;;;;;5.05;1.90;;;8.90;97.10;;;;;;4085269;29;20114;-76
2024/02/19 06:30:51;;;;;;;3.80;1.70;;;9.00;97.20;;;;;;4085811;29;20540;-76
2024/02/19 06:32:54;;;;;;;3.70;1.70;;;9.00;97.20;;;;;;4085666;29;20055;-75
2024/02/19 06:34:56;;;;;;;4.10;1.63;;;9.10;96.90;;;;;;4085819;29;20051;-75
2024/02/19 06:36:58;;;;;;;3.95;1.90;;;9.10;96.70;;;;;;4085966;29;20253;-75
2024/02/19 06:39:00;;;;;;;4.00;1.50;;;9.10;96.60;;;;;;4085681;29;20111;-76
2024/02/19 06:41:02;;;;;;;3.40;1.60;;;9.10;96.60;;;;;;4085594;29;20095;-75
2024/02/19 06:43:03;;;;;;;3.25;1.58;;;9.10;96.80;;;;;;4085634;29;20055;-75
2024/02/19 06:45:06;;;;;;;3.83;1.80;;;9.10;96.70;;;;;;4084933;29;20048;-74
2024/02/19 06:47:08;;;;;;;4.13;2.10;;;9.10;96.60;;;;;;4085334;29;20055;-74
2024/02/19 06:49:11;;;;;;;5.68;2.20;;;9.10;96.60;;;;;;4085333;29;20051;-75
2024/02/19 06:51:13;;;;;;;4.95;1.90;;;9.10;96.70;;;;;;4085272;29;20063;-74
2024/02/19 06:53:14;;;;;;;4.70;2.05;;;9.10;96.50;;;;;;4085437;29;20047;-75
2024/02/19 06:55:17;;;;;;;5.50;1.83;;;9.10;96.50;;;;;;4085025;29;20103;-75
2024/02/19 06:57:19;;;;;;;5.07;1.90;;;9.10;96.50;;;;;;4085157;29;20461;-75
2024/02/19 06:59:20;;;;;;;5.40;2.00;;;9.10;96.50;;;;;;4085096;29;20051;-75
2024/02/19 07:01:22;;;;;;;4.88;2.03;;;9.10;96.30;;;;;;4084875;29;20481;-75
2024/02/19 07:03:24;;;;;;;5.88;2.17;;;9.10;96.50;;;;;;4085200;29;20103;-75
2024/02/19 07:05:27;;;;;;;5.85;2.13;;;9.10;96.20;;;;;;4085128;29;20052;-76
2024/02/19 07:07:28;;;;;;;6.00;2.17;;;9.00;95.70;;;;;;4085204;29;20044;-75
2024/02/19 07:09:30;;;;;;;6.20;2.00;;;9.00;95.10;;;;;;4085237;29;20086;-75
2024/02/19 07:11:32;;;;;;;4.65;2.10;;;9.00;95.40;;;;;;4085114;29;20486;-76
2024/02/19 07:13:34;;;;;;;5.45;2.45;;;9.00;95.30;;;;;;4085107;29;20114;-76
2024/02/19 07:15:35;;;;;;;5.82;2.35;;;9.00;95.00;;;;;;4085011;29;20553;-74
2024/02/19 07:17:37;;;;;;;6.20;2.30;;;8.90;94.80;;;;;;4085030;29;20047;-75
2024/02/19 07:19:38;;;;;;;6.45;2.20;;;8.90;94.10;;;;;;4085003;29;20056;-75
2024/02/19 07:21:41;;;;;;;4.43;2.05;;;8.90;94.60;;;;;;4084787;29;20449;-75
2024/02/19 07:23:43;;;;;;;5.20;2.25;;;8.90;94.50;;;;;;4084921;29;20052;-75
2024/02/19 07:25:46;;;;;;;5.40;2.42;;;8.90;94.40;;;;;;4084731;29;20055;-75
2024/02/19 07:27:47;;;;;;;7.93;2.60;;;8.90;94.30;;;;;;4084835;29;20453;-75
2024/02/19 07:29:50;;;;;;;7.50;2.85;;;8.90;94.30;;;;;;4084552;29;20047;-75
2024/02/19 07:31:52;;;;;;;8.77;2.83;;;8.90;94.40;;;;;;4085048;29;20063;-74
2024/02/19 07:33:55;;;;;;;5.55;2.80;;;8.90;94.40;;;;;;4084760;29;20052;-74
2024/02/19 07:35:57;;;;;;;7.72;2.78;;;8.90;94.30;;;;;;4084799;29;20048;-75
2024/02/19 07:38:00;;;;;;;6.55;2.85;;;8.90;94.30;;;;;;4084499;29;20052;-75
2024/02/19 07:40:03;;;;;;;8.02;3.25;;;9.00;94.20;;;;;;4084745;29;20160;-75
2024/02/19 07:42:05;;;;;;;8.30;2.42;;;9.00;93.80;;;;;;4084476;29;20130;-75
2024/02/19 07:44:07;;;;;;;6.78;2.50;;;9.00;93.40;;;;;;4084528;29;20549;-75
2024/02/19 07:46:08;;;;;;;10.07;2.47;;;9.00;93.00;;;;;;4084578;29;20043;-75
2024/02/19 07:48:11;;;;;;;7.07;2.40;;;9.10;92.90;;;;;;4084650;29;20465;-75
2024/02/19 07:50:13;;;;;;;7.70;2.42;;;9.00;92.90;;;;;;4084756;29;20537;-75
2024/02/19 07:52:14;;;;;;;6.32;2.53;;;9.00;92.40;;;;;;4084487;29;20043;-76
2024/02/19 07:54:17;;;;;;;9.57;3.03;;;9.00;93.10;;;;;;4084729;29;20458;-75
2024/02/19 07:56:18;;;;;;;6.40;2.50;;;9.10;92.80;;;;;;4084377;29;20099;-75
2024/02/19 07:58:20;;;;;;;6.50;2.60;;;9.00;92.60;;;;;;4084462;29;20051;-75
2024/02/19 08:00:22;;;;;;;6.10;2.72;;;9.00;92.70;;;;;;4084532;29;20537;-74
2024/02/19 08:02:24;;;;;;;8.18;2.67;;;9.00;92.50;;;;;;4084738;29;20465;-74
2024/02/19 08:04:27;;;;;;;6.28;2.30;;;9.10;92.50;;;;;;4084646;29;20114;-74
2024/02/19 08:06:29;;;;;;;6.30;2.20;;;9.00;91.80;;;;;;4084469;29;20469;-75
2024/02/19 08:08:31;;;;;;;6.90;2.47;;;9.00;91.90;;;;;;4084481;29;20051;-75
2024/02/19 08:10:35;;;;;;;5.85;2.38;;;8.90;92.20;;;;;;4084363;29;20095;-75
2024/02/19 08:12:37;;;;;;;6.38;2.40;;;9.00;92.20;;;;;;4084702;29;20138;-76
2024/02/19 08:14:39;;;;;;;7.18;2.35;;;9.00;92.30;;;;;;4084629;29;20485;-75
2024/02/19 08:16:40;;;;;;;5.78;2.30;;;9.10;91.60;;;;;;4084472;29;20091;-75
2024/02/19 08:18:42;;;;;;;5.75;2.10;;;9.10;91.60;;;;;;4084273;29;20048;-75
2024/02/19 08:20:44;;;;;;;6.47;2.30;;;9.20;91.20;;;;;;4084371;29;20055;-75
2024/02/19 08:22:45;;;;;;;7.95;2.40;;;9.10;91.40;;;;;;4084922;29;20051;-76
2024/02/19 08:24:47;;;;;;;6.43;2.08;;;9.10;91.10;;;;;;4084269;29;20103;-75
2024/02/19 08:26:50;;;;;;;6.50;2.10;;;9.10;90.80;;;;;;4084203;29;20056;-75
2024/02/19 08:28:52;;;;;;;8.05;2.28;;;9.10;91.00;;;;;;4084264;29;20059;-73
2024/02/19 08:30:53;;;;;;;6.25;1.90;;;9.10;90.70;;;;;;4084283;29;20107;-74
2024/02/19 08:32:54;;;;;;;8.00;1.98;;;9.00;90.70;;;;;;4084313;29;20047;-74
2024/02/19 08:34:56;;;;;;;5.57;1.80;;;9.00;90.40;;;;;;4084202;29;20055;-75
2024/02/19 08:36:58;;;;;;;7.18;1.63;;;9.10;90.40;;;;;;4084366;29;20048;-75
2024/02/19 08:39:00;;;;;;;5.15;1.90;;;9.10;90.50;;;;;;4083986;29;20051;-75
2024/02/19 08:41:01;;;;;;;5.35;1.77;;;9.10;90.70;;;;;;4084235;29;20052;-75
2024/02/19 08:43:04;;;;;;;5.93;1.60;;;9.10;90.10;;;;;;4084305;29;20054;-75
2024/02/19 08:45:08;;;;;;;9.90;3.22;;;9.00;89.80;;;;;;4084137;29;20051;-75
2024/02/19 08:47:10;;;;;;;7.63;1.65;;;9.10;90.00;;;;;;4084109;29;20094;-75
2024/02/19 08:49:12;;;;;;;5.97;1.80;;;9.10;89.30;;;;;;4084283;29;20494;-74
2024/02/19 08:51:14;;;;;;;5.57;1.40;;;9.10;89.20;;;;;;4084346;29;20103;-75
2024/02/19 08:53:16;;;;;;;4.90;1.67;;;9.00;87.80;;;;;;4084241;29;20047;-75
2024/02/19 08:55:18;;;;;;;5.10;1.50;;;9.00;88.50;;;;;;4084027;29;20052;-75
2024/02/19 08:57:20;;;;;;;6.78;1.77;;;9.00;89.10;;;;;;4084156;29;20107;-75
2024/02/19 08:59:23;;;;;;;4.30;1.45;;;9.00;88.20;;;;;;4084049;29;20048;-75
2024/02/19 09:01:24;;;;;;;6.63;1.35;;;9.00;88.80;;;;;;4083948;29;20063;-75
2024/02/19 09:03:26;;;;;;;6.13;1.55;;;9.10;88.60;;;;;;4083532;29;20103;-75
2024/02/19 09:05:28;;;;;;;7.53;1.90;;;9.10;88.80;;;;;;4084106;29;20055;-75
2024/02/19 09:07:29;;;;;;;4.95;2.03;;;9.10;89.30;;;;;;4084156;29;20075;-75
2024/02/19 09:09:31;;;;;;;7.60;1.50;;;9.00;89.60;;;;;;4086504;29;20044;-74
2024/02/19 09:11:33;;;;;;;6.68;1.75;;;9.00;89.70;;;;;;4086718;29;20059;-75
2024/02/19 09:13:36;;;;;;;5.85;2.03;;;9.00;89.70;;;;;;4086592;29;20094;-75
2024/02/19 09:15:39;;;;;;;13.23;4.90;;;9.10;90.00;;;;;;4087037;29;20055;-75
2024/02/19 09:17:41;;;;;;;6.35;1.85;;;9.10;90.10;;;;;;4086741;29;20209;-75
2024/02/19 09:19:41;;;;;;;5.78;1.70;;;9.10;89.20;;;;;;4086436;29;20051;-75
2024/02/19 09:21:44;;;;;;;5.50;1.80;;;9.00;88.80;;;;;;4086721;29;20050;-74
2024/02/19 09:23:46;;;;;;;6.65;1.90;;;9.10;89.50;;;;;;4086916;29;20134;-75
2024/02/19 09:25:48;;;;;;;6.07;1.77;;;9.10;89.50;;;;;;4086932;29;20450;-75
2024/02/19 09:27:50;;;;;;;4.90;1.75;;;9.10;89.20;;;;;;4086852;29;20099;-75
2024/02/19 09:29:52;;;;;;;3.03;1.52;;;9.10;89.70;;;;;;4086784;29;20083;-74
2024/02/19 09:31:55;;;;;;;6.57;1.83;;;9.20;89.30;;;;;;4086668;29;20055;-74
2024/02/19 09:33:59;;;;;;;4.28;1.58;;;9.20;88.90;;;;;;4086736;29;20482;-74
2024/02/19 09:36:01;;;;;;;5.30;1.63;;;9.20;88.00;;;;;;4086499;29;20229;-75
2024/02/19 09:38:02;;;;;;;5.97;1.60;;;9.20;87.40;;;;;;4086784;29;20052;-74
2024/02/19 09:40:04;;;;;;;4.85;1.70;;;9.20;87.90;;;;;;4085952;29;20098;-75
2024/02/19 09:42:08;;;;;;;4.05;1.50;;;9.30;88.20;;;;;;4084208;29;20079;-75
2024/02/19 09:44:10;;;;;;;5.65;1.40;;;9.30;86.90;;;;;;4084319;29;20054;-75
2024/02/19 09:46:15;;;;;;;4.93;1.40;;;9.30;86.70;;;;;;4084064;29;20441;-75
2024/02/19 09:48:19;;;;;;;6.68;1.50;;;9.30;86.50;;;;;;4084250;29;20055;-76
2024/02/19 09:50:22;;;;;;;6.30;1.30;;;9.40;86.00;;;;;;4083927;29;20051;-75
2024/02/19 09:52:26;;;;;;;5.13;1.35;;;9.30;85.10;;;;;;4084215;29;20517;-75
2024/02/19 09:54:28;;;;;;;5.32;1.10;;;9.40;85.50;;;;;;4083761;29;20552;-74
2024/02/19 09:56:30;;;;;;;2.85;0.90;;;9.40;84.40;;;;;;4082011;29;20131;-74
2024/02/19 09:58:32;;;;;;;4.30;1.45;;;9.40;85.20;;;;;;4083942;29;20126;-75
2024/02/19 10:00:34;;;;;;;4.55;1.42;;;9.40;85.00;;;;;;4083620;29;20060;-75
2024/02/19 10:02:38;;;;;;;3.55;1.00;;;9.50;85.30;;;;;;4084118;29;20138;-75
2024/02/19 10:04:40;;;;;;;3.83;1.10;;;9.50;84.90;;;;;;4084034;29;20056;-75
2024/02/19 10:06:42;;;;;;;4.05;1.35;;;9.60;84.00;;;;;;4083716;29;20047;-75
2024/02/19 10:08:45;;;;;;;4.95;0.77;;;9.50;83.30;;;;;;4083743;29;20465;-75
2024/02/19 10:10:56;;;;;;;3.97;1.10;;;9.50;83.30;;;;;;4084164;29;20446;-75
2024/02/19 10:12:58;;;;;;;6.20;1.30;;;9.50;82.40;;;;;;4084017;29;20154;-75
2024/02/19 10:15:00;;;;;;;3.45;0.90;;;9.50;83.40;;;;;;4083840;29;20134;-75
2024/02/19 10:17:04;;;;;;;2.38;0.82;;;9.50;83.00;;;;;;4083837;29;20135;-75
2024/02/19 10:19:08;;;;;;;3.63;1.05;;;9.50;83.00;;;;;;4083488;29;20126;-75
2024/02/19 10:21:11;;;;;;;2.10;0.80;;;9.50;83.20;;;;;;4082858;29;20837;-75
2024/02/19 10:23:14;;;;;;;4.10;1.15;;;9.50;82.80;;;;;;4083613;29;20099;-75
2024/02/19 10:25:16;;;;;;;4.80;1.20;;;9.50;82.20;;;;;;4083582;29;20051;-75
2024/02/19 10:27:18;;;;;;;6.20;1.00;;;9.50;81.80;;;;;;4083540;29;20055;-75
2024/02/19 10:29:21;;;;;;;2.30;0.88;;;9.50;81.70;;;;;;4083354;29;20524;-76
2024/02/19 10:31:23;;;;;;;2.65;0.77;;;9.50;81.90;;;;;;4083692;29;20550;-75
2024/02/19 10:33:25;;;;;;;4.57;0.95;;;9.50;82.80;;;;;;4083517;29;20060;-76
2024/02/19 10:35:27;;;;;;;2.85;0.80;;;9.50;81.60;;;;;;4083213;29;20402;-75
2024/02/19 10:37:31;;;;;;;5.15;1.40;;;9.50;81.30;;;;;;4083796;29;20458;-76
2024/02/19 10:39:33;;;;;;;2.60;0.75;;;9.50;80.20;;;;;;4083608;29;20417;-75
2024/02/19 10:41:36;;;;;;;2.90;0.90;;;9.60;81.10;;;;;;4083133;29;20063;-76
2024/02/19 10:43:37;;;;;;;3.05;0.80;;;9.50;81.00;;;;;;4083343;29;20079;-75
2024/02/19 10:45:40;;;;;;;4.50;0.90;;;9.40;81.30;;;;;;4083009;29;20051;-76
2024/02/19 10:47:41;;;;;;;3.20;0.90;;;9.50;81.10;;;;;;4083401;29;20047;-75
2024/02/19 10:49:49;;;;;;;3.03;0.90;;;9.50;80.90;;;;;;4083456;29;20063;-75
2024/02/19 10:51:52;;;;;;;2.65;0.75;;;9.50;80.50;;;;;;4083270;29;20051;-77
2024/02/19 10:54:02;;;;;;;3.63;0.85;;;9.50;80.00;;;;;;4083039;29;20390;-75
2024/02/19 10:56:15;;;;;;;4.30;1.00;;;9.40;80.20;;;;;;4081230;29;20410;-76
2024/02/19 10:58:16;;;;;;;2.35;0.85;;;9.50;80.30;;;;;;4083261;29;20055;-75
2024/02/19 11:00:25;;;;;;;6.63;0.95;;;9.50;79.40;;;;;;4082815;29;20415;-76
2024/02/19 11:02:29;;;;;;;3.53;0.98;;;9.50;79.30;;;;;;4083295;29;20055;-75
2024/02/19 11:04:34;;;;;;;5.30;1.13;;;9.50;79.70;;;;;;4082889;29;20083;-75
2024/02/19 11:06:39;;;;;;;4.10;1.02;;;9.40;79.70;;;;;;4082558;29;20439;-75
2024/02/19 11:08:50;;;;;;;5.10;1.10;;;9.40;80.20;;;;;;4083038;29;20047;-75
2024/02/19 11:10:57;;;;;;;3.33;1.05;;;9.40;80.70;;;;;;4082917;29;20147;-76
2024/02/19 11:13:03;;;;;;;3.90;1.10;;;9.40;81.00;;;;;;4082826;29;20080;-75
2024/02/19 11:15:16;;;;;;;4.30;0.95;;;9.40;80.40;;;;;;4082562;29;20512;-76
2024/02/19 11:17:18;;;;;;;4.00;1.25;;;9.40;80.40;;;;;;4082878;29;20091;-76
2024/02/19 11:19:22;;;;;;;5.25;1.10;;;9.40;80.30;;;;;;4082548;29;20114;-75
2024/02/19 11:21:24;;;;;;;5.03;1.02;;;9.30;80.10;;;;;;4082750;29;20048;-75
2024/02/19 11:23:28;;;;;;;6.45;1.10;;;9.30;80.60;;;;;;4082871;29;20572;-75
2024/02/19 11:25:30;;;;;;;3.47;1.15;;;9.30;80.80;;;;;;4082758;29;20122;-77
2024/02/19 11:27:33;;;;;;;6.25;1.02;;;9.30;81.50;;;;;;4082614;29;20379;-75
2024/02/19 11:29:35;;;;;;;4.80;1.20;;;9.30;81.10;;;;;;4082590;29;20063;-74
2024/02/19 11:31:39;;;;;;;4.68;1.08;;;9.30;79.70;;;;;;4082524;29;20453;-75
2024/02/19 11:33:41;;;;;;;4.88;1.20;;;9.30;79.70;;;;;;4082549;29;20048;-74
2024/02/19 11:35:44;;;;;;;4.22;1.35;;;9.30;80.00;;;;;;4082290;29;20462;-74
2024/02/19 11:37:45;;;;;;;5.93;1.38;;;9.30;80.40;;;;;;4082654;29;20056;-74
2024/02/19 11:39:46;;;;;;;4.63;1.05;;;9.40;80.30;;;;;;4082603;29;20118;-75
2024/02/19 11:41:49;;;;;;;5.00;1.23;;;9.40;78.20;;;;;;4082414;29;20043;-74
2024/02/19 11:43:54;;;;;;;6.50;1.40;;;9.40;80.10;;;;;;4082645;29;20051;-75
2024/02/19 11:45:57;;;;;;;5.22;1.23;;;9.40;79.30;;;;;;4082624;29;20150;-75
2024/02/19 11:48:00;;;;;;;3.28;1.10;;;9.40;78.90;;;;;;4082653;29;20055;-75
2024/02/19 11:50:05;;;;;;;4.55;1.40;;;9.40;78.50;;;;;;4082485;29;20103;-74
2024/02/19 11:52:09;;;;;;;6.05;1.30;;;9.40;79.10;;;;;;4082586;29;20055;-75
2024/02/19 11:54:12;;;;;;;4.88;1.20;;;9.40;79.40;;;;;;4082259;29;20058;-75
2024/02/19 11:56:18;;;;;;;4.63;1.38;;;9.50;79.50;;;;;;4080615;29;20103;-75
2024/02/19 11:58:19;;;;;;;6.15;1.38;;;9.60;79.10;;;;;;4082527;29;20134;-75
2024/02/19 12:00:23;;;;;;;4.30;1.00;;;9.60;78.50;;;;;;4082245;29;20055;-76
2024/02/19 12:02:25;;;;;;;6.38;1.58;;;9.70;78.50;;;;;;4082453;29;20060;-75
2024/02/19 12:04:27;;;;;;;4.10;1.23;;;9.70;79.10;;;;;;4081874;29;20488;-75
2024/02/19 12:06:28;;;;;;;5.60;1.38;;;9.70;78.20;;;;;;4081759;29;20055;-75
2024/02/19 12:08:31;;;;;;;3.78;0.93;;;9.80;78.40;;;;;;4082343;29;20461;-75
2024/02/19 12:10:32;;;;;;;5.25;1.02;;;9.70;76.80;;;;;;4082313;29;20055;-75
2024/02/19 12:12:33;;;;;;;3.67;0.95;;;9.80;77.00;;;;;;4082544;29;20056;-75
2024/02/19 12:14:36;;;;;;;6.78;1.45;;;9.80;76.80;;;;;;4082341;29;20059;-75
2024/02/19 12:16:40;;;;;;;2.92;0.82;;;9.90;76.00;;;;;;4082312;29;20059;-75
2024/02/19 12:18:45;;;;;;;7.57;1.05;;;9.90;76.50;;;;;;4082007;29;20099;-74
2024/02/19 12:20:47;;;;;;;4.35;0.85;;;9.80;75.90;;;;;;4081940;29;20055;-75
2024/02/19 12:22:49;;;;;;;6.38;1.35;;;9.80;76.00;;;;;;4082503;29;20051;-75
2024/02/19 12:24:52;;;;;;;3.50;0.80;;;9.80;75.10;;;;;;4082592;29;20056;-75
2024/02/19 12:26:53;;;;;;;4.57;0.88;;;9.80;75.80;;;;;;4082446;29;20059;-75
2024/02/19 12:28:55;;;;;;;4.60;1.13;;;9.80;76.40;;;;;;4082352;29;20104;-75
2024/02/19 12:30:57;;;;;;;5.93;1.10;;;9.80;75.80;;;;;;4081768;29;20051;-75
2024/02/19 12:33:00;;;;;;;5.10;1.10;;;9.70;76.00;;;;;;4082290;29;20374;-75
2024/02/19 12:35:03;;;;;;;4.90;0.90;;;9.80;76.00;;;;;;4081901;29;20052;-74
2024/02/19 12:37:04;;;;;;;5.03;1.00;;;9.80;75.50;;;;;;4066373;29;20466;-75
2024/02/19 12:39:09;;;;;;;4.75;1.05;;;9.70;75.40;;;;;;4066387;29;20060;-74
2024/02/19 12:41:13;;;;;;;2.87;1.00;;;9.70;77.10;;;;;;4066103;29;20144;-74
2024/02/19 12:43:15;;;;;;;5.18;1.02;;;9.70;76.60;;;;;;4066788;29;20715;-74
2024/02/19 12:45:17;;;;;;;4.95;1.15;;;9.70;75.00;;;;;;4069505;29;20458;-75
2024/02/19 12:47:20;;;;;;;5.30;1.10;;;9.70;75.40;;;;;;4069458;29;20080;-74
2024/02/19 12:49:23;;;;;;;5.38;1.00;;;9.80;75.40;;;;;;4069481;29;20099;-75
2024/02/19 12:51:33;;;;;;;4.82;1.27;;;9.70;75.10;;;;;;4069419;29;20108;-74
2024/02/19 12:53:35;;;;;;;3.78;1.17;;;9.70;75.70;;;;;;4069250;29;20048;-74
2024/02/19 12:55:37;;;;;;;5.20;0.95;;;9.70;76.30;;;;;;4067411;29;20127;-74
2024/02/19 12:57:39;;;;;;;3.60;1.00;;;9.70;75.10;;;;;;4069158;29;20104;-74
2024/02/19 12:59:39;;;;;;;3.47;0.90;;;9.70;75.00;;;;;;4069226;29;20417;-74
2024/02/19 13:01:41;;;;;;;3.63;0.98;;;9.70;74.70;;;;;;4069134;29;20056;-75
2024/02/19 13:03:44;;;;;;;7.03;1.15;;;9.70;74.60;;;;;;4069212;29;20111;-75
2024/02/19 13:05:47;;;;;;;4.25;1.10;;;9.70;74.30;;;;;;4068973;29;20494;-74
2024/02/19 13:07:50;;;;;;;4.05;1.10;;;9.70;73.80;;;;;;4069136;29;20048;-74
2024/02/19 13:09:52;;;;;;;3.83;1.10;;;9.80;74.10;;;;;;4069194;29;20496;-75
2024/02/19 13:11:56;;;;;;;5.22;1.10;;;9.80;73.70;;;;;;4069148;29;20131;-74
2024/02/19 13:13:58;;;;;;;6.40;1.40;;;9.80;74.60;;;;;;4068852;29;20052;-74
2024/02/19 13:16:00;;;;;;;6.40;2.40;;;9.90;75.20;;;;;;4069332;29;20065;-75
2024/02/19 13:18:02;;;;;;;6.13;1.20;;;9.80;75.20;;;;;;4068965;29;20398;-74
2024/02/19 13:20:06;;;;;;;5.30;1.20;;;9.80;74.40;;;;;;4069263;29;20096;-74
2024/02/19 13:22:09;;;;;;;5.78;1.42;;;9.90;74.30;;;;;;4069098;29;20052;-74
2024/02/19 13:24:11;;;;;;;4.18;1.02;;;10.00;74.50;;;;;;4069020;29;20403;-74
2024/02/19 13:26:13;;;;;;;4.55;1.40;;;10.10;74.20;;;;;;4068981;29;20123;-74
2024/02/19 13:28:15;;;;;;;6.38;1.35;;;10.20;74.30;;;;;;4079022;29;20060;-74
2024/02/19 13:30:17;;;;;;;6.20;1.38;;;10.20;74.30;;;;;;4084434;29;20063;-74
2024/02/19 13:32:19;;;;;;;4.70;1.38;;;10.20;74.40;;;;;;4084441;29;20087;-74
2024/02/19 13:34:21;;;;;;;4.85;1.23;;;10.30;74.20;;;;;;4084159;29;20118;-74
2024/02/19 13:36:23;;;;;;;5.85;1.23;;;10.40;73.90;;;;;;4084585;29;20449;-74
2024/02/19 13:38:27;;;;;;;5.28;1.20;;;10.40;73.80;;;;;;4084486;29;20051;-75
2024/02/19 13:40:28;;;;;;;6.93;1.50;;;10.50;72.30;;;;;;4084344;29;20079;-74
2024/02/19 13:42:33;;;;;;;4.55;1.35;;;10.60;72.80;;;;;;4082141;29;20379;-75
2024/02/19 13:44:34;;;;;;;3.83;1.17;;;10.80;72.40;;;;;;4084053;29;20095;-74
2024/02/19 13:46:36;;;;;;;8.90;1.65;;;11.00;70.80;;;;;;4084112;29;20485;-75
2024/02/19 13:48:39;;;;;;;5.38;1.20;;;12.10;68.60;;;;;;4084360;29;20047;-74
2024/02/19 13:50:41;;;;;;;5.32;1.38;;;11.50;68.20;;;;;;4083944;29;20062;-74
2024/02/19 13:52:42;;;;;;;5.72;1.30;;;11.40;68.40;;;;;;4084092;29;20059;-74
2024/02/19 13:54:46;;;;;;;6.28;1.40;;;11.30;67.70;;;;;;4083223;29;20052;-74
2024/02/19 13:56:49;;;;;;;6.47;1.30;;;11.60;67.80;;;;;;4081929;29;20103;-74
2024/02/19 13:58:50;;;;;;;5.78;1.20;;;12.60;63.90;;;;;;4083417;29;20063;-74
2024/02/19 14:00:53;;;;;;;6.20;1.50;;;12.20;63.70;;;;;;4083533;29;20059;-74
2024/02/19 14:02:55;;;;;;;6.18;1.10;;;12.00;65.10;;;;;;4083953;29;20099;-74
2024/02/19 14:04:57;;;;;;;6.25;1.52;;;11.70;66.20;;;;;;4083464;29;20062;-74
2024/02/19 14:06:59;;;;;;;5.25;1.42;;;11.60;66.10;;;;;;4083327;29;20453;-74
2024/02/19 14:09:01;;;;;;;6.25;1.42;;;11.40;65.40;;;;;;4083768;29;20474;-74
2024/02/19 14:11:04;;;;;;;7.10;1.75;;;11.30;66.00;;;;;;4083527;29;20059;-75
2024/02/19 14:13:06;;;;;;;6.30;1.48;;;11.20;66.00;;;;;;4083696;29;20056;-74
2024/02/19 14:15:09;;;;;;;5.70;1.63;;;11.10;66.20;;;;;;4083698;29;20051;-75
2024/02/19 14:17:11;;;;;;;6.38;1.40;;;11.10;66.30;;;;;;4083538;29;20111;-76
2024/02/19 14:19:14;;;;;;;6.07;1.40;;;11.10;66.80;;;;;;4083481;29;20056;-75
2024/02/19 14:21:16;;;;;;;5.47;1.35;;;11.00;67.30;;;;;;4083470;29;20056;-75
2024/02/19 14:23:18;;;;;;;5.78;1.60;;;11.00;67.70;;;;;;4083732;29;20052;-75
2024/02/19 14:25:20;;;;;;;6.88;1.45;;;11.00;67.60;;;;;;4083258;29;20107;-75
2024/02/19 14:27:24;;;;;;;5.70;1.42;;;10.90;67.00;;;;;;4083184;29;20051;-74
2024/02/19 14:29:27;;;;;;;5.28;1.30;;;10.90;66.40;;;;;;4082972;29;20139;-75
2024/02/19 14:31:29;;;;;;;5.70;1.67;;;10.80;66.90;;;;;;4083161;29;20615;-75
2024/02/19 14:33:31;;;;;;;8.23;1.67;;;10.80;67.80;;;;;;4083116;29;20591;-75
2024/02/19 14:35:32;;;;;;;6.45;1.60;;;10.80;67.90;;;;;;4082736;29;20052;-75
2024/02/19 14:37:38;;;;;;;6.75;1.60;;;10.80;67.80;;;;;;4083056;29;20055;-75
2024/02/19 14:39:40;;;;;;;5.28;1.70;;;10.80;67.30;;;;;;4083328;29;20047;-76
2024/02/19 14:41:42;;;;;;;5.32;1.55;;;10.80;67.60;;;;;;4083049;29;20635;-75
2024/02/19 14:43:45;;;;;;;6.90;1.90;;;10.80;68.00;;;;;;4082703;29;20134;-74
2024/02/19 14:45:46;;;;;;;6.22;1.77;;;10.80;68.00;;;;;;4082557;29;20511;-74
2024/02/19 14:47:48;;;;;;;6.18;1.80;;;10.80;68.40;;;;;;4083131;29;20479;-75
2024/02/19 14:49:49;;;;;;;6.43;1.55;;;10.80;68.00;;;;;;4082994;29;20094;-74
2024/02/19 14:51:51;;;;;;;6.63;1.63;;;10.80;68.40;;;;;;4082770;29;20059;-75
2024/02/19 14:53:53;;;;;;;6.00;1.83;;;10.80;68.30;;;;;;4082559;29;20051;-75
2024/02/19 14:55:56;;;;;;;5.72;1.70;;;10.80;68.20;;;;;;4081233;29;20147;-75
2024/02/19 14:57:57;;;;;;;4.90;1.73;;;10.90;68.20;;;;;;4082906;29;20071;-76
2024/02/19 15:00:00;;;;;;;7.53;1.83;;;10.90;68.40;;;;;;4082730;29;20151;-75
2024/02/19 15:02:02;;;;;;;6.07;1.50;;;10.90;67.70;;;;;;4082496;29;20119;-75
2024/02/19 15:04:05;;;;;;;7.43;1.70;;;10.90;68.00;;;;;;4082761;29;20059;-75
2024/02/19 15:06:07;;;;;;;10.40;4.50;;;11.00;68.00;;;;;;4081258;29;20079;-75
2024/02/19 15:08:15;;;;;;;12.93;5.32;;;10.90;67.70;;;;;;4082883;29;20477;-75
2024/02/19 15:10:15;;;;;;;8.85;3.25;;;10.90;67.60;;;;;;4082967;29;20102;-75
2024/02/19 15:12:17;;;;;;;4.80;1.88;;;10.90;67.60;;;;;;4082307;29;20059;-75
2024/02/19 15:14:20;;;;;;;6.95;1.63;;;10.90;67.70;;;;;;4079882;29;20159;-76
2024/02/19 15:16:23;;;;;;;4.95;1.33;;;10.90;67.40;;;;;;4082661;29;20059;-76
2024/02/19 15:18:25;;;;;;;7.18;1.95;;;10.90;67.30;;;;;;4082347;29;20106;-75
2024/02/19 15:20:27;;;;;;;6.57;1.63;;;10.90;67.30;;;;;;4082380;29;20048;-76
2024/02/19 15:22:29;;;;;;;7.65;2.03;;;10.90;67.20;;;;;;4082690;29;20067;-76
2024/02/19 15:24:31;;;;;;;10.38;4.70;;;10.90;67.30;;;;;;4082536;29;20051;-76
2024/02/19 15:26:33;;;;;;;11.15;4.13;;;10.90;67.10;;;;;;4082436;29;20469;-76
2024/02/19 15:28:34;;;;;;;6.28;2.25;;;10.90;67.10;;;;;;4082605;29;20075;-77
2024/02/19 15:30:38;;;;;;;8.20;1.90;;;10.90;67.40;;;;;;4080238;29;20047;-77
2024/02/19 15:32:41;;;;;;;6.03;1.60;;;10.90;67.30;;;;;;4080418;29;20500;-75
2024/02/19 15:34:43;;;;;;;5.78;1.85;;;10.90;67.50;;;;;;4081687;29;20043;-75
2024/02/19 15:36:45;;;;;;;9.27;1.80;;;10.90;67.80;;;;;;4081624;29;20052;-75
2024/02/19 15:38:47;;;;;;;8.80;2.33;;;10.80;68.20;;;;;;4082020;29;20055;-76
2024/02/19 15:40:49;;;;;;;6.85;1.90;;;10.80;68.50;;;;;;4082068;29;20138;-76
2024/02/19 15:42:51;;;;;;;6.82;1.80;;;10.80;69.00;;;;;;4082041;29;20111;-77
2024/02/19 15:44:53;;;;;;;7.55;2.10;;;10.80;69.30;;;;;;4082164;29;20051;-77
2024/02/19 15:46:55;;;;;;;8.05;2.00;;;10.70;70.70;;;;;;4082799;29;20788;-76
2024/02/19 15:49:00;;;;;;;8.07;2.20;;;10.70;70.60;;;;;;4081601;29;20063;-76
2024/02/19 15:51:02;;;;;;;6.97;2.33;;;10.70;71.10;;;;;;4081994;29;20568;-75
2024/02/19 15:53:05;;;;;;;6.13;2.20;;;10.70;71.70;;;;;;4082298;29;20527;-76
2024/02/19 15:55:09;;;;;;;7.43;2.22;;;10.70;72.10;;;;;;4081269;29;20051;-75
2024/02/19 15:57:11;;;;;;;7.10;2.00;;;10.70;72.40;;;;;;4080095;29;20051;-76
2024/02/19 15:59:12;;;;;;;6.38;2.15;;;10.70;72.50;;;;;;4082591;29;20047;-76
2024/02/19 16:01:13;;;;;;;9.32;2.53;;;10.70;72.80;;;;;;4081883;29;20060;-76
2024/02/19 16:03:15;;;;;;;6.15;2.22;;;10.70;73.10;;;;;;4082509;29;20047;-77
2024/02/19 16:05:19;;;;;;;7.45;2.70;;;10.60;73.30;;;;;;4082080;29;20155;-75
2024/02/19 16:07:21;;;;;;;10.13;2.30;;;10.60;73.80;;;;;;4082350;29;20054;-76
2024/02/19 16:09:23;;;;;;;8.90;2.33;;;10.60;73.80;;;;;;4082225;29;20056;-75
2024/02/19 16:11:24;;;;;;;6.78;2.33;;;10.60;73.80;;;;;;4082369;29;20048;-76
2024/02/19 16:13:26;;;;;;;8.85;2.53;;;10.60;73.80;;;;;;4082348;29;20197;-76
2024/02/19 16:15:28;;;;;;;7.07;2.55;;;10.60;73.80;;;;;;4082342;29;20119;-76
2024/02/19 16:17:29;;;;;;;8.45;2.40;;;10.60;73.90;;;;;;4082965;29;20960;-75
2024/02/19 16:19:31;;;;;;;8.82;2.30;;;10.60;74.10;;;;;;4085267;29;20055;-76
2024/02/19 16:21:35;;;;;;;10.55;2.75;;;10.60;74.20;;;;;;4085550;29;20055;-76
2024/02/19 16:23:36;;;;;;;9.88;2.35;;;10.60;74.40;;;;;;4085499;29;20083;-75
2024/02/19 16:25:38;;;;;;;9.95;2.50;;;10.60;74.40;;;;;;4084911;29;20062;-75
2024/02/19 16:27:40;;;;;;;5.57;2.10;;;10.60;74.50;;;;;;4085613;29;20532;-75
2024/02/19 16:29:43;;;;;;;6.50;2.63;;;10.60;74.40;;;;;;4084935;29;20052;-75
2024/02/19 16:31:44;;;;;;;5.97;2.50;;;10.60;74.50;;;;;;4085525;29;20409;-76
2024/02/19 16:33:47;;;;;;;7.38;2.30;;;10.60;74.70;;;;;;4085410;29;20059;-75
2024/02/19 16:35:50;;;;;;;9.38;2.47;;;10.60;74.80;;;;;;4084789;29;20521;-76
2024/02/19 16:37:53;;;;;;;8.38;2.85;;;10.60;74.80;;;;;;4085266;29;20055;-75
2024/02/19 16:39:55;;;;;;;7.10;2.40;;;10.60;74.80;;;;;;4085439;29;20130;-75
2024/02/19 16:41:57;;;;;;;6.97;2.70;;;10.60;74.90;;;;;;4084885;29;20056;-76